sensor_id;sensor_type;location;lat;lon;timestamp;temperature;humidity
20712;DHT22;10517;50.742;4.224;2023-02-25T00:00:32;3.90;99.90
20712;DHT22;10517;50.742;4.224;2023-02-25T00:02:58;4.00;99.90
20712;DHT22;10517;50.742;4.224;2023-02-25T00:05:25;4.00;99.90
20712;DHT22;10517;50.742;4.224;2023-02-25T00:07:51;4.00;99.90
20712;DHT22;10517;50.742;4.224;2023-02-25T00:10:16;4.00;99.90
20712;DHT22;10517;50.742;4.224;2023-02-25T00:12:42;4.00;99.90
20712;DHT22;10517;50.742;4.224;2023-02-25T00:15:08;4.00;99.90
20712;DHT22;10517;50.742;4.224;2023-02-25T00:17:35;4.00;99.90
20712;DHT22;10517;50.742;4.224;2023-02-25T00:20:02;4.00;99.90
20712;DHT22;10517;50.742;4.224;2023-02-25T00:22:29;4.00;99.90
20712;DHT22;10517;50.742;4.224;2023-02-25T00:24:55;3.90;99.90
20712;DHT22;10517;50.742;4.224;2023-02-25T00:27:21;3.90;99.90
20712;DHT22;10517;50.742;4.224;2023-02-25T00:29:50;3.90;99.90
20712;DHT22;10517;50.742;4.224;2023-02-25T00:32:16;3.90;99.90
20712;DHT22;10517;50.742;4.224;2023-02-25T00:34:41;4.00;99.90
20712;DHT22;10517;50.742;4.224;2023-02-25T00:37:07;4.00;99.90
20712;DHT22;10517;50.742;4.224;2023-02-25T00:39:32;3.90;99.90
20712;DHT22;10517;50.742;4.224;2023-02-25T00:42:09;3.90;99.90
20712;DHT22;10517;50.742;4.224;2023-02-25T00:44:35;3.90;99.90
20712;DHT22;10517;50.742;4.224;2023-02-25T00:47:02;4.00;99.90
20712;DHT22;10517;50.742;4.224;2023-02-25T00:49:28;3.90;99.90
20712;DHT22;10517;50.742;4.224;2023-02-25T00:51:53;3.90;99.90
20712;DHT22;10517;50.742;4.224;2023-02-25T00:54:20;3.80;99.90
20712;DHT22;10517;50.742;4.224;2023-02-25T00:56:46;3.90;99.90
20712;DHT22;10517;50.742;4.224;2023-02-25T00:59:12;4.00;99.90
20712;DHT22;10517;50.742;4.224;2023-02-25T01:01:38;4.10;99.90
20712;DHT22;10517;50.742;4.224;2023-02-25T01:04:04;4.10;99.90
20712;DHT22;10517;50.742;4.224;2023-02-25T01:06:31;4.10;99.90
20712;DHT22;10517;50.742;4.224;2023-02-25T01:08:58;4.10;99.90
20712;DHT22;10517;50.742;4.224;2023-02-25T01:11:31;4.10;99.90
20712;DHT22;10517;50.742;4.224;2023-02-25T01:13:59;4.20;99.90
20712;DHT22;10517;50.742;4.224;2023-02-25T01:16:27;4.20;99.90
20712;DHT22;10517;50.742;4.224;2023-02-25T01:18:54;4.20;99.90
20712;DHT22;10517;50.742;4.224;2023-02-25T01:21:23;4.10;99.90
20712;DHT22;10517;50.742;4.224;2023-02-25T01:24:01;4.20;99.90
20712;DHT22;10517;50.742;4.224;2023-02-25T01:26:28;4.20;99.90
20712;DHT22;10517;50.742;4.224;2023-02-25T01:28:54;4.20;99.90
20712;DHT22;10517;50.742;4.224;2023-02-25T01:31:20;4.20;99.90
20712;DHT22;10517;50.742;4.224;2023-02-25T01:34:03;4.20;99.90
20712;DHT22;10517;50.742;4.224;2023-02-25T01:36:30;4.30;99.90
20712;DHT22;10517;50.742;4.224;2023-02-25T01:38:57;4.20;99.90
20712;DHT22;10517;50.742;4.224;2023-02-25T01:41:24;4.20;99.90
20712;DHT22;10517;50.742;4.224;2023-02-25T01:46:35;4.00;99.90
20712;DHT22;10517;50.742;4.224;2023-02-25T01:49:02;3.90;99.90
20712;DHT22;10517;50.742;4.224;2023-02-25T01:51:30;3.90;99.90
20712;DHT22;10517;50.742;4.224;2023-02-25T01:53:57;4.00;99.90
20712;DHT22;10517;50.742;4.224;2023-02-25T01:56:25;3.90;99.90
20712;DHT22;10517;50.742;4.224;2023-02-25T01:58:52;3.80;99.90
20712;DHT22;10517;50.742;4.224;2023-02-25T02:01:21;3.70;99.90
20712;DHT22;10517;50.742;4.224;2023-02-25T02:03:48;3.70;99.90
20712;DHT22;10517;50.742;4.224;2023-02-25T02:06:28;3.60;99.90
20712;DHT22;10517;50.742;4.224;2023-02-25T02:08:55;3.50;99.90
20712;DHT22;10517;50.742;4.224;2023-02-25T02:11:21;3.50;99.90
20712;DHT22;10517;50.742;4.224;2023-02-25T02:13:50;3.40;99.90
20712;DHT22;10517;50.742;4.224;2023-02-25T02:19:42;3.60;99.90
20712;DHT22;10517;50.742;4.224;2023-02-25T02:36:12;3.40;99.90
20712;DHT22;10517;50.742;4.224;2023-02-25T02:39:07;3.40;99.90
20712;DHT22;10517;50.742;4.224;2023-02-25T02:47:29;3.70;99.90
20712;DHT22;10517;50.742;4.224;2023-02-25T02:50:01;3.70;99.90
20712;DHT22;10517;50.742;4.224;2023-02-25T02:52:30;3.60;99.90
20712;DHT22;10517;50.742;4.224;2023-02-25T02:55:01;3.70;99.90
20712;DHT22;10517;50.742;4.224;2023-02-25T02:57:29;3.80;99.90
20712;DHT22;10517;50.742;4.224;2023-02-25T02:59:59;3.80;99.90
20712;DHT22;10517;50.742;4.224;2023-02-25T03:02:27;3.80;99.90
20712;DHT22;10517;50.742;4.224;2023-02-25T03:04:58;3.80;99.90
20712;DHT22;10517;50.742;4.224;2023-02-25T03:07:25;3.90;99.90
20712;DHT22;10517;50.742;4.224;2023-02-25T03:09:56;3.90;99.90
20712;DHT22;10517;50.742;4.224;2023-02-25T03:12:23;3.90;99.90
20712;DHT22;10517;50.742;4.224;2023-02-25T03:14:48;3.80;99.90
20712;DHT22;10517;50.742;4.224;2023-02-25T03:17:25;3.80;99.90
20712;DHT22;10517;50.742;4.224;2023-02-25T03:19:58;3.80;99.90
20712;DHT22;10517;50.742;4.224;2023-02-25T03:22:35;3.90;99.90
20712;DHT22;10517;50.742;4.224;2023-02-25T03:25:12;4.00;99.90
20712;DHT22;10517;50.742;4.224;2023-02-25T03:27:41;3.90;99.90
20712;DHT22;10517;50.742;4.224;2023-02-25T03:30:12;3.90;99.90
20712;DHT22;10517;50.742;4.224;2023-02-25T03:32:46;3.80;99.90
20712;DHT22;10517;50.742;4.224;2023-02-25T03:35:16;4.00;99.90
20712;DHT22;10517;50.742;4.224;2023-02-25T03:37:46;4.00;99.90
20712;DHT22;10517;50.742;4.224;2023-02-25T03:40:13;4.10;99.90
20712;DHT22;10517;50.742;4.224;2023-02-25T03:42:44;4.10;99.90
20712;DHT22;10517;50.742;4.224;2023-02-25T03:45:12;4.10;99.90
20712;DHT22;10517;50.742;4.224;2023-02-25T03:47:38;4.10;99.90
20712;DHT22;10517;50.742;4.224;2023-02-25T03:52:38;4.30;99.90
20712;DHT22;10517;50.742;4.224;2023-02-25T03:55:04;4.20;99.90
20712;DHT22;10517;50.742;4.224;2023-02-25T03:57:36;4.20;99.90
20712;DHT22;10517;50.742;4.224;2023-02-25T04:00:15;4.30;99.90
20712;DHT22;10517;50.742;4.224;2023-02-25T04:02:47;4.20;99.90
20712;DHT22;10517;50.742;4.224;2023-02-25T04:05:15;4.20;99.90
20712;DHT22;10517;50.742;4.224;2023-02-25T04:07:41;4.20;99.90
20712;DHT22;10517;50.742;4.224;2023-02-25T04:10:08;4.30;99.90
20712;DHT22;10517;50.742;4.224;2023-02-25T04:12:34;4.30;99.90
20712;DHT22;10517;50.742;4.224;2023-02-25T04:15:00;4.40;99.90
20712;DHT22;10517;50.742;4.224;2023-02-25T04:17:25;4.50;99.90
20712;DHT22;10517;50.742;4.224;2023-02-25T04:19:51;4.50;99.90
20712;DHT22;10517;50.742;4.224;2023-02-25T04:22:16;4.40;99.90
20712;DHT22;10517;50.742;4.224;2023-02-25T04:24:42;4.40;99.90
20712;DHT22;10517;50.742;4.224;2023-02-25T04:27:07;4.40;99.90
20712;DHT22;10517;50.742;4.224;2023-02-25T04:29:33;4.30;99.90
20712;DHT22;10517;50.742;4.224;2023-02-25T04:31:59;4.30;99.90
20712;DHT22;10517;50.742;4.224;2023-02-25T04:34:24;4.40;99.90
20712;DHT22;10517;50.742;4.224;2023-02-25T04:36:50;4.40;99.90
20712;DHT22;10517;50.742;4.224;2023-02-25T04:39:16;4.30;99.90
20712;DHT22;10517;50.742;4.224;2023-02-25T04:41:43;4.30;99.90
20712;DHT22;10517;50.742;4.224;2023-02-25T04:44:09;4.40;99.90
20712;DHT22;10517;50.742;4.224;2023-02-25T04:46:38;4.30;99.90
20712;DHT22;10517;50.742;4.224;2023-02-25T04:49:06;4.20;99.90
20712;DHT22;10517;50.742;4.224;2023-02-25T04:51:32;4.10;99.90
20712;DHT22;10517;50.742;4.224;2023-02-25T04:53:58;4.00;99.90
20712;DHT22;10517;50.742;4.224;2023-02-25T04:56:24;4.00;99.90
20712;DHT22;10517;50.742;4.224;2023-02-25T04:58:50;3.90;99.90
20712;DHT22;10517;50.742;4.224;2023-02-25T05:01:15;3.80;99.90
20712;DHT22;10517;50.742;4.224;2023-02-25T05:03:41;3.90;99.90
20712;DHT22;10517;50.742;4.224;2023-02-25T05:06:07;3.80;99.90
20712;DHT22;10517;50.742;4.224;2023-02-25T05:08:34;3.80;99.90
20712;DHT22;10517;50.742;4.224;2023-02-25T05:11:01;3.70;99.90
20712;DHT22;10517;50.742;4.224;2023-02-25T05:13:27;3.70;99.90
20712;DHT22;10517;50.742;4.224;2023-02-25T05:16:12;3.70;99.90
20712;DHT22;10517;50.742;4.224;2023-02-25T05:18:39;3.70;99.90
20712;DHT22;10517;50.742;4.224;2023-02-25T05:21:09;3.70;99.90
20712;DHT22;10517;50.742;4.224;2023-02-25T05:23:37;3.80;99.90
20712;DHT22;10517;50.742;4.224;2023-02-25T05:26:03;3.80;99.90
20712;DHT22;10517;50.742;4.224;2023-02-25T05:28:29;3.80;99.90
20712;DHT22;10517;50.742;4.224;2023-02-25T05:30:54;3.80;99.90
20712;DHT22;10517;50.742;4.224;2023-02-25T05:33:21;3.80;99.90
20712;DHT22;10517;50.742;4.224;2023-02-25T05:35:48;3.70;99.90
20712;DHT22;10517;50.742;4.224;2023-02-25T05:38:13;3.70;99.90
20712;DHT22;10517;50.742;4.224;2023-02-25T05:40:39;3.70;99.90
20712;DHT22;10517;50.742;4.224;2023-02-25T05:43:05;3.70;99.90
20712;DHT22;10517;50.742;4.224;2023-02-25T05:45:30;3.60;99.90
20712;DHT22;10517;50.742;4.224;2023-02-25T05:47:57;3.60;99.90
20712;DHT22;10517;50.742;4.224;2023-02-25T05:50:22;3.50;99.90
20712;DHT22;10517;50.742;4.224;2023-02-25T05:52:48;3.50;99.90
20712;DHT22;10517;50.742;4.224;2023-02-25T05:55:13;3.60;99.90
20712;DHT22;10517;50.742;4.224;2023-02-25T05:57:40;3.80;99.90
20712;DHT22;10517;50.742;4.224;2023-02-25T06:00:08;3.90;99.90
20712;DHT22;10517;50.742;4.224;2023-02-25T06:02:35;3.90;99.90
20712;DHT22;10517;50.742;4.224;2023-02-25T06:05:01;4.00;99.90
20712;DHT22;10517;50.742;4.224;2023-02-25T06:07:29;4.10;99.90
20712;DHT22;10517;50.742;4.224;2023-02-25T06:09:55;4.30;99.90
20712;DHT22;10517;50.742;4.224;2023-02-25T06:12:28;4.30;99.90
20712;DHT22;10517;50.742;4.224;2023-02-25T06:14:54;4.30;99.90
20712;DHT22;10517;50.742;4.224;2023-02-25T06:17:19;4.50;99.90
20712;DHT22;10517;50.742;4.224;2023-02-25T06:19:45;4.60;99.90
20712;DHT22;10517;50.742;4.224;2023-02-25T06:22:11;4.70;99.90
20712;DHT22;10517;50.742;4.224;2023-02-25T06:24:37;4.70;99.90
20712;DHT22;10517;50.742;4.224;2023-02-25T06:27:05;4.50;99.90
20712;DHT22;10517;50.742;4.224;2023-02-25T06:29:30;4.60;99.90
20712;DHT22;10517;50.742;4.224;2023-02-25T06:31:56;4.40;99.90
20712;DHT22;10517;50.742;4.224;2023-02-25T06:34:21;4.20;99.90
20712;DHT22;10517;50.742;4.224;2023-02-25T06:36:47;4.10;99.90
20712;DHT22;10517;50.742;4.224;2023-02-25T06:39:12;4.00;99.90
20712;DHT22;10517;50.742;4.224;2023-02-25T06:41:38;4.10;99.90
20712;DHT22;10517;50.742;4.224;2023-02-25T06:44:04;4.10;99.90
20712;DHT22;10517;50.742;4.224;2023-02-25T06:46:30;4.20;99.90
20712;DHT22;10517;50.742;4.224;2023-02-25T06:48:56;4.10;99.90
20712;DHT22;10517;50.742;4.224;2023-02-25T06:51:22;4.10;99.90
20712;DHT22;10517;50.742;4.224;2023-02-25T06:53:48;4.20;99.90
20712;DHT22;10517;50.742;4.224;2023-02-25T06:56:15;4.40;99.90
20712;DHT22;10517;50.742;4.224;2023-02-25T06:58:41;4.40;99.90
20712;DHT22;10517;50.742;4.224;2023-02-25T07:01:09;4.50;99.90
20712;DHT22;10517;50.742;4.224;2023-02-25T07:03:35;4.40;99.90
20712;DHT22;10517;50.742;4.224;2023-02-25T07:06:01;4.50;99.90
20712;DHT22;10517;50.742;4.224;2023-02-25T07:08:27;4.60;99.90
20712;DHT22;10517;50.742;4.224;2023-02-25T07:10:52;4.60;99.90
20712;DHT22;10517;50.742;4.224;2023-02-25T07:13:18;4.70;99.90
20712;DHT22;10517;50.742;4.224;2023-02-25T07:15:43;4.70;99.90
20712;DHT22;10517;50.742;4.224;2023-02-25T07:18:09;4.80;99.90
20712;DHT22;10517;50.742;4.224;2023-02-25T07:20:35;4.90;99.90
20712;DHT22;10517;50.742;4.224;2023-02-25T07:23:03;4.90;99.90
20712;DHT22;10517;50.742;4.224;2023-02-25T07:25:29;5.00;99.90
20712;DHT22;10517;50.742;4.224;2023-02-25T07:27:55;5.20;99.90
20712;DHT22;10517;50.742;4.224;2023-02-25T07:30:20;5.30;99.90
20712;DHT22;10517;50.742;4.224;2023-02-25T07:32:46;5.30;99.90
20712;DHT22;10517;50.742;4.224;2023-02-25T07:35:12;5.50;99.90
20712;DHT22;10517;50.742;4.224;2023-02-25T07:37:37;5.60;99.90
20712;DHT22;10517;50.742;4.224;2023-02-25T07:40:07;5.70;99.90
20712;DHT22;10517;50.742;4.224;2023-02-25T07:42:38;5.80;99.90
20712;DHT22;10517;50.742;4.224;2023-02-25T07:45:04;5.90;99.90
20712;DHT22;10517;50.742;4.224;2023-02-25T07:47:30;5.90;99.90
20712;DHT22;10517;50.742;4.224;2023-02-25T07:49:56;5.80;99.90
20712;DHT22;10517;50.742;4.224;2023-02-25T07:52:21;5.90;99.90
20712;DHT22;10517;50.742;4.224;2023-02-25T07:54:47;5.60;99.90
20712;DHT22;10517;50.742;4.224;2023-02-25T07:57:12;5.60;99.90
20712;DHT22;10517;50.742;4.224;2023-02-25T07:59:38;5.30;99.90
20712;DHT22;10517;50.742;4.224;2023-02-25T08:02:04;4.90;99.90
20712;DHT22;10517;50.742;4.224;2023-02-25T08:04:29;4.80;99.90
20712;DHT22;10517;50.742;4.224;2023-02-25T08:06:55;4.70;99.90
20712;DHT22;10517;50.742;4.224;2023-02-25T08:09:20;4.70;99.90
20712;DHT22;10517;50.742;4.224;2023-02-25T08:11:49;4.70;99.90
20712;DHT22;10517;50.742;4.224;2023-02-25T08:14:16;4.80;99.90
20712;DHT22;10517;50.742;4.224;2023-02-25T08:16:42;4.80;99.90
20712;DHT22;10517;50.742;4.224;2023-02-25T08:19:07;4.90;99.90
20712;DHT22;10517;50.742;4.224;2023-02-25T08:21:33;4.90;99.90
20712;DHT22;10517;50.742;4.224;2023-02-25T08:23:58;5.00;99.90
20712;DHT22;10517;50.742;4.224;2023-02-25T08:26:24;5.00;99.90
20712;DHT22;10517;50.742;4.224;2023-02-25T08:28:52;5.00;99.90
20712;DHT22;10517;50.742;4.224;2023-02-25T08:31:19;4.90;99.90
20712;DHT22;10517;50.742;4.224;2023-02-25T08:33:47;4.90;99.90
20712;DHT22;10517;50.742;4.224;2023-02-25T08:36:37;5.00;99.90
20712;DHT22;10517;50.742;4.224;2023-02-25T08:39:02;5.10;99.90
20712;DHT22;10517;50.742;4.224;2023-02-25T08:41:28;5.10;99.90
20712;DHT22;10517;50.742;4.224;2023-02-25T08:43:57;5.20;99.90
20712;DHT22;10517;50.742;4.224;2023-02-25T08:46:24;5.40;99.90
20712;DHT22;10517;50.742;4.224;2023-02-25T08:48:52;5.50;99.90
20712;DHT22;10517;50.742;4.224;2023-02-25T08:51:19;5.40;99.90
20712;DHT22;10517;50.742;4.224;2023-02-25T08:53:45;5.30;99.90
20712;DHT22;10517;50.742;4.224;2023-02-25T08:56:12;5.30;99.90
20712;DHT22;10517;50.742;4.224;2023-02-25T08:58:39;5.20;99.90
20712;DHT22;10517;50.742;4.224;2023-02-25T09:01:09;5.20;99.90
20712;DHT22;10517;50.742;4.224;2023-02-25T09:03:46;5.30;99.90
20712;DHT22;10517;50.742;4.224;2023-02-25T09:06:23;5.50;99.90
20712;DHT22;10517;50.742;4.224;2023-02-25T09:08:50;5.50;99.90
20712;DHT22;10517;50.742;4.224;2023-02-25T09:11:17;5.60;99.90
20712;DHT22;10517;50.742;4.224;2023-02-25T09:13:42;5.60;99.90
20712;DHT22;10517;50.742;4.224;2023-02-25T09:16:08;5.60;99.90
20712;DHT22;10517;50.742;4.224;2023-02-25T09:18:34;5.70;99.90
20712;DHT22;10517;50.742;4.224;2023-02-25T09:21:00;5.60;99.90
20712;DHT22;10517;50.742;4.224;2023-02-25T09:23:26;5.80;99.90
20712;DHT22;10517;50.742;4.224;2023-02-25T09:25:51;5.90;99.90
20712;DHT22;10517;50.742;4.224;2023-02-25T09:28:17;6.00;99.90
20712;DHT22;10517;50.742;4.224;2023-02-25T09:30:46;6.10;99.90
20712;DHT22;10517;50.742;4.224;2023-02-25T09:33:12;6.30;99.90
20712;DHT22;10517;50.742;4.224;2023-02-25T09:35:38;6.20;99.90
20712;DHT22;10517;50.742;4.224;2023-02-25T09:38:05;6.20;99.90
20712;DHT22;10517;50.742;4.224;2023-02-25T09:40:31;6.20;99.90
20712;DHT22;10517;50.742;4.224;2023-02-25T09:45:40;6.00;99.90
20712;DHT22;10517;50.742;4.224;2023-02-25T09:48:24;5.70;99.90
20712;DHT22;10517;50.742;4.224;2023-02-25T09:50:56;5.30;99.90
20712;DHT22;10517;50.742;4.224;2023-02-25T09:55:51;4.90;99.90
20712;DHT22;10517;50.742;4.224;2023-02-25T09:58:29;4.80;99.90
20712;DHT22;10517;50.742;4.224;2023-02-25T10:06:35;5.30;99.90
20712;DHT22;10517;50.742;4.224;2023-02-25T10:19:57;5.90;99.90
20712;DHT22;10517;50.742;4.224;2023-02-25T10:22:34;6.00;99.90
20712;DHT22;10517;50.742;4.224;2023-02-25T10:25:17;6.20;99.90
20712;DHT22;10517;50.742;4.224;2023-02-25T10:33:21;6.60;99.90
20712;DHT22;10517;50.742;4.224;2023-02-25T10:35:56;6.80;99.90
20712;DHT22;10517;50.742;4.224;2023-02-25T10:38:25;7.10;99.90
20712;DHT22;10517;50.742;4.224;2023-02-25T10:40:54;7.30;99.90
20712;DHT22;10517;50.742;4.224;2023-02-25T10:43:23;7.40;99.90
20712;DHT22;10517;50.742;4.224;2023-02-25T10:45:59;7.50;99.90
20712;DHT22;10517;50.742;4.224;2023-02-25T10:48:25;7.20;99.90
20712;DHT22;10517;50.742;4.224;2023-02-25T10:51:06;7.10;99.90
20712;DHT22;10517;50.742;4.224;2023-02-25T10:53:34;7.10;99.90
20712;DHT22;10517;50.742;4.224;2023-02-25T10:56:00;7.00;99.90
20712;DHT22;10517;50.742;4.224;2023-02-25T11:08:53;7.30;99.90
20712;DHT22;10517;50.742;4.224;2023-02-25T11:16:35;5.70;99.90
20712;DHT22;10517;50.742;4.224;2023-02-25T11:19:09;5.60;99.90
20712;DHT22;10517;50.742;4.224;2023-02-25T11:21:38;5.70;99.90
20712;DHT22;10517;50.742;4.224;2023-02-25T11:24:28;5.90;99.90
20712;DHT22;10517;50.742;4.224;2023-02-25T11:26:55;6.10;99.90
20712;DHT22;10517;50.742;4.224;2023-02-25T11:29:26;6.10;99.90
20712;DHT22;10517;50.742;4.224;2023-02-25T11:31:59;6.10;99.90
20712;DHT22;10517;50.742;4.224;2023-02-25T11:34:29;6.20;99.90
20712;DHT22;10517;50.742;4.224;2023-02-25T11:36:56;6.40;99.90
20712;DHT22;10517;50.742;4.224;2023-02-25T11:39:29;6.60;99.90
20712;DHT22;10517;50.742;4.224;2023-02-25T11:42:00;6.70;99.90
20712;DHT22;10517;50.742;4.224;2023-02-25T11:44:29;6.80;99.90
20712;DHT22;10517;50.742;4.224;2023-02-25T11:50:16;7.00;99.90
20712;DHT22;10517;50.742;4.224;2023-02-25T11:52:53;7.10;99.90
20712;DHT22;10517;50.742;4.224;2023-02-25T11:58:21;7.50;99.90
20712;DHT22;10517;50.742;4.224;2023-02-25T12:00:53;7.70;99.90
20712;DHT22;10517;50.742;4.224;2023-02-25T12:06:45;7.80;99.90
20712;DHT22;10517;50.742;4.224;2023-02-25T12:09:52;7.90;99.90
20712;DHT22;10517;50.742;4.224;2023-02-25T12:32:04;8.10;99.90
20712;DHT22;10517;50.742;4.224;2023-02-25T12:42:56;6.50;99.90
20712;DHT22;10517;50.742;4.224;2023-02-25T12:45:40;6.40;99.90
20712;DHT22;10517;50.742;4.224;2023-02-25T12:48:35;6.30;99.90
20712;DHT22;10517;50.742;4.224;2023-02-25T12:51:18;6.50;99.90
20712;DHT22;10517;50.742;4.224;2023-02-25T13:02:26;7.20;99.90
20712;DHT22;10517;50.742;4.224;2023-02-25T13:13:12;8.00;99.90
20712;DHT22;10517;50.742;4.224;2023-02-25T13:18:26;8.50;99.90
20712;DHT22;10517;50.742;4.224;2023-02-25T13:21:34;8.70;99.90
20712;DHT22;10517;50.742;4.224;2023-02-25T13:24:10;9.10;99.90
20712;DHT22;10517;50.742;4.224;2023-02-25T13:32:19;9.70;99.90
20712;DHT22;10517;50.742;4.224;2023-02-25T13:38:16;11.10;99.90
20712;DHT22;10517;50.742;4.224;2023-02-25T13:52:13;9.60;99.90
20712;DHT22;10517;50.742;4.224;2023-02-25T14:11:28;9.90;99.90
20712;DHT22;10517;50.742;4.224;2023-02-25T14:35:05;8.30;99.90
20712;DHT22;10517;50.742;4.224;2023-02-25T14:37:19;8.10;99.90
20712;DHT22;10517;50.742;4.224;2023-02-25T14:40:11;8.30;99.90
20712;DHT22;10517;50.742;4.224;2023-02-25T14:45:43;10.20;99.90
20712;DHT22;10517;50.742;4.224;2023-02-25T14:48:18;10.60;99.90
20712;DHT22;10517;50.742;4.224;2023-02-25T14:51:38;10.30;99.90
20712;DHT22;10517;50.742;4.224;2023-02-25T14:56:45;9.70;99.90
20712;DHT22;10517;50.742;4.224;2023-02-25T14:59:26;9.30;99.90
20712;DHT22;10517;50.742;4.224;2023-02-25T15:13:43;8.10;99.90
20712;DHT22;10517;50.742;4.224;2023-02-25T15:23:56;8.10;99.90
20712;DHT22;10517;50.742;4.224;2023-02-25T15:26:26;7.90;99.90
20712;DHT22;10517;50.742;4.224;2023-02-25T15:29:03;7.80;99.90
20712;DHT22;10517;50.742;4.224;2023-02-25T15:31:30;7.80;99.90
20712;DHT22;10517;50.742;4.224;2023-02-25T15:36:48;7.80;99.90
20712;DHT22;10517;50.742;4.224;2023-02-25T15:42:04;7.50;99.90
20712;DHT22;10517;50.742;4.224;2023-02-25T15:44:33;7.40;99.90
20712;DHT22;10517;50.742;4.224;2023-02-25T15:49:45;7.20;99.90
20712;DHT22;10517;50.742;4.224;2023-02-25T15:52:11;7.10;99.90
20712;DHT22;10517;50.742;4.224;2023-02-25T15:59:53;7.00;99.90
20712;DHT22;10517;50.742;4.224;2023-02-25T16:08:23;6.90;99.90
20712;DHT22;10517;50.742;4.224;2023-02-25T16:10:54;6.90;99.90
20712;DHT22;10517;50.742;4.224;2023-02-25T16:13:30;6.90;99.90
20712;DHT22;10517;50.742;4.224;2023-02-25T16:15:57;6.90;99.90
20712;DHT22;10517;50.742;4.224;2023-02-25T16:20:58;7.00;99.90
20712;DHT22;10517;50.742;4.224;2023-02-25T16:23:26;7.10;99.90
20712;DHT22;10517;50.742;4.224;2023-02-25T16:28:48;7.30;99.90
20712;DHT22;10517;50.742;4.224;2023-02-25T16:31:19;7.20;99.90
20712;DHT22;10517;50.742;4.224;2023-02-25T16:34:03;7.20;99.90
20712;DHT22;10517;50.742;4.224;2023-02-25T16:36:45;7.20;99.90
20712;DHT22;10517;50.742;4.224;2023-02-25T16:41:41;6.90;99.90
20712;DHT22;10517;50.742;4.224;2023-02-25T16:44:07;6.80;99.90
20712;DHT22;10517;50.742;4.224;2023-02-25T16:46:35;6.70;99.90
20712;DHT22;10517;50.742;4.224;2023-02-25T16:49:09;6.60;99.90
20712;DHT22;10517;50.742;4.224;2023-02-25T16:51:37;6.50;99.90
20712;DHT22;10517;50.742;4.224;2023-02-25T16:54:16;6.40;99.90
20712;DHT22;10517;50.742;4.224;2023-02-25T16:56:45;6.40;99.90
20712;DHT22;10517;50.742;4.224;2023-02-25T16:59:18;6.30;99.90
20712;DHT22;10517;50.742;4.224;2023-02-25T17:01:58;6.30;99.90
20712;DHT22;10517;50.742;4.224;2023-02-25T17:07:17;6.20;99.90
20712;DHT22;10517;50.742;4.224;2023-02-25T17:09:49;6.10;99.90
20712;DHT22;10517;50.742;4.224;2023-02-25T17:12:19;6.10;99.90
20712;DHT22;10517;50.742;4.224;2023-02-25T17:14:48;6.00;99.90
20712;DHT22;10517;50.742;4.224;2023-02-25T17:17:26;5.90;99.90
20712;DHT22;10517;50.742;4.224;2023-02-25T17:19:52;5.90;99.90
20712;DHT22;10517;50.742;4.224;2023-02-25T17:22:20;5.80;99.90
20712;DHT22;10517;50.742;4.224;2023-02-25T17:24:48;5.70;99.90
20712;DHT22;10517;50.742;4.224;2023-02-25T17:27:15;5.70;99.90
20712;DHT22;10517;50.742;4.224;2023-02-25T17:29:41;5.60;99.90
20712;DHT22;10517;50.742;4.224;2023-02-25T17:32:27;5.50;99.90
20712;DHT22;10517;50.742;4.224;2023-02-25T17:34:56;5.40;99.90
20712;DHT22;10517;50.742;4.224;2023-02-25T17:37:25;5.40;99.90
20712;DHT22;10517;50.742;4.224;2023-02-25T17:39:52;5.40;99.90
20712;DHT22;10517;50.742;4.224;2023-02-25T17:44:51;5.20;99.90
20712;DHT22;10517;50.742;4.224;2023-02-25T17:47:28;5.20;99.90
20712;DHT22;10517;50.742;4.224;2023-02-25T17:49:55;5.10;99.90
20712;DHT22;10517;50.742;4.224;2023-02-25T17:52:28;5.10;99.90
20712;DHT22;10517;50.742;4.224;2023-02-25T17:55:06;5.10;99.90
20712;DHT22;10517;50.742;4.224;2023-02-25T17:57:44;5.10;99.90
20712;DHT22;10517;50.742;4.224;2023-02-25T18:00:21;5.00;99.90
20712;DHT22;10517;50.742;4.224;2023-02-25T18:03:26;4.90;99.90
20712;DHT22;10517;50.742;4.224;2023-02-25T18:05:57;4.90;99.90
20712;DHT22;10517;50.742;4.224;2023-02-25T18:08:31;4.90;99.90
20712;DHT22;10517;50.742;4.224;2023-02-25T18:11:28;4.80;99.90
20712;DHT22;10517;50.742;4.224;2023-02-25T18:13:54;4.80;99.90
20712;DHT22;10517;50.742;4.224;2023-02-25T18:16:39;4.70;99.90
20712;DHT22;10517;50.742;4.224;2023-02-25T18:19:39;4.60;99.90
20712;DHT22;10517;50.742;4.224;2023-02-25T18:22:07;4.60;99.90
20712;DHT22;10517;50.742;4.224;2023-02-25T18:24:51;4.60;99.90
20712;DHT22;10517;50.742;4.224;2023-02-25T18:27:27;4.50;99.90
20712;DHT22;10517;50.742;4.224;2023-02-25T18:30:16;4.50;99.90
20712;DHT22;10517;50.742;4.224;2023-02-25T18:32:43;4.40;99.90
20712;DHT22;10517;50.742;4.224;2023-02-25T18:35:09;4.40;99.90
20712;DHT22;10517;50.742;4.224;2023-02-25T18:37:34;4.40;99.90
20712;DHT22;10517;50.742;4.224;2023-02-25T18:40:00;4.30;99.90
20712;DHT22;10517;50.742;4.224;2023-02-25T18:42:25;4.30;99.90
20712;DHT22;10517;50.742;4.224;2023-02-25T18:44:51;4.30;99.90
20712;DHT22;10517;50.742;4.224;2023-02-25T18:47:17;4.30;99.90
20712;DHT22;10517;50.742;4.224;2023-02-25T18:49:43;4.30;99.90
20712;DHT22;10517;50.742;4.224;2023-02-25T18:52:23;4.30;99.90
20712;DHT22;10517;50.742;4.224;2023-02-25T18:54:50;4.30;99.90
20712;DHT22;10517;50.742;4.224;2023-02-25T18:57:24;4.20;99.90
20712;DHT22;10517;50.742;4.224;2023-02-25T18:59:51;4.20;99.90
20712;DHT22;10517;50.742;4.224;2023-02-25T19:02:32;4.10;99.90
20712;DHT22;10517;50.742;4.224;2023-02-25T19:04:58;4.20;99.90
20712;DHT22;10517;50.742;4.224;2023-02-25T19:07:27;4.20;99.90
20712;DHT22;10517;50.742;4.224;2023-02-25T19:09:54;4.10;99.90
20712;DHT22;10517;50.742;4.224;2023-02-25T19:12:24;4.10;99.90
20712;DHT22;10517;50.742;4.224;2023-02-25T19:14:58;4.00;99.90
20712;DHT22;10517;50.742;4.224;2023-02-25T19:17:26;4.00;99.90
20712;DHT22;10517;50.742;4.224;2023-02-25T19:19:51;3.90;99.90
20712;DHT22;10517;50.742;4.224;2023-02-25T19:22:17;3.90;99.90
20712;DHT22;10517;50.742;4.224;2023-02-25T19:24:45;3.90;99.90
20712;DHT22;10517;50.742;4.224;2023-02-25T19:27:24;3.90;99.90
20712;DHT22;10517;50.742;4.224;2023-02-25T19:29:53;3.80;99.90
20712;DHT22;10517;50.742;4.224;2023-02-25T19:32:19;3.80;99.90
20712;DHT22;10517;50.742;4.224;2023-02-25T19:34:46;3.70;99.90
20712;DHT22;10517;50.742;4.224;2023-02-25T19:37:13;3.80;99.90
20712;DHT22;10517;50.742;4.224;2023-02-25T19:39:40;3.70;99.90
20712;DHT22;10517;50.742;4.224;2023-02-25T19:42:06;3.70;99.90
20712;DHT22;10517;50.742;4.224;2023-02-25T19:44:33;3.60;99.90
20712;DHT22;10517;50.742;4.224;2023-02-25T19:46:59;3.60;99.90
20712;DHT22;10517;50.742;4.224;2023-02-25T19:49:25;3.50;99.90
20712;DHT22;10517;50.742;4.224;2023-02-25T19:51:51;3.50;99.90
20712;DHT22;10517;50.742;4.224;2023-02-25T19:54:21;3.50;99.90
20712;DHT22;10517;50.742;4.224;2023-02-25T19:56:47;3.50;99.90
20712;DHT22;10517;50.742;4.224;2023-02-25T19:59:13;3.50;99.90
20712;DHT22;10517;50.742;4.224;2023-02-25T20:01:39;3.50;99.90
20712;DHT22;10517;50.742;4.224;2023-02-25T20:04:06;3.40;99.90